createdAt,value
2023-05-05T00:01:09.110Z,78.52
2023-05-05T00:03:36.804Z,78.82
2023-05-05T00:06:05.639Z,79.12
2023-05-05T00:08:33.531Z,79.41
2023-05-05T00:11:01.485Z,79.51
2023-05-05T00:13:29.090Z,79.22
2023-05-05T00:15:56.790Z,78.82
2023-05-05T00:18:24.559Z,79.52
2023-05-05T00:20:52.307Z,79.72
2023-05-05T00:23:20.852Z,80.10
2023-05-05T00:25:48.586Z,80.29
2023-05-05T00:28:16.157Z,80.45
2023-05-05T00:30:43.860Z,80.75
2023-05-05T00:33:12.234Z,80.87
2023-05-05T00:35:40.412Z,81.27
2023-05-05T00:38:08.494Z,81.04
2023-05-05T00:40:37.088Z,81.22
2023-05-05T00:43:05.703Z,81.42
2023-05-05T00:45:33.370Z,81.76
2023-05-05T00:48:01.425Z,81.73
2023-05-05T00:50:30.697Z,82.20
2023-05-05T00:53:06.075Z,81.95
2023-05-05T00:55:35.353Z,81.97
2023-05-05T00:58:04.344Z,82.30
2023-05-05T01:00:32.672Z,82.73
2023-05-05T01:03:00.748Z,83.05
2023-05-05T01:05:41.671Z,82.79
2023-05-05T01:08:33.839Z,82.85
2023-05-05T01:11:10.308Z,83.10
2023-05-05T01:13:59.036Z,83.57
2023-05-05T01:16:28.649Z,84.01
2023-05-05T01:19:21.302Z,83.92
2023-05-05T01:21:56.175Z,84.05
2023-05-05T01:24:46.051Z,84.57
2023-05-05T01:27:38.893Z,84.39
2023-05-05T01:30:34.254Z,84.20
2023-05-05T01:33:06.778Z,84.25
2023-05-05T01:35:41.889Z,84.59
2023-05-05T01:38:16.491Z,84.45
2023-05-05T01:40:49.461Z,84.33
2023-05-05T01:43:19.796Z,84.28
2023-05-05T01:45:48.603Z,84.37
2023-05-05T01:48:18.326Z,84.71
2023-05-05T01:50:47.884Z,84.71
2023-05-05T01:53:17.595Z,85.12
2023-05-05T01:55:46.258Z,85.12
2023-05-05T01:58:14.569Z,84.89
2023-05-05T02:00:44.078Z,84.48
2023-05-05T02:03:13.803Z,84.36
2023-05-05T02:05:42.053Z,84.18
2023-05-05T02:08:11.219Z,84.06
2023-05-05T02:10:43.512Z,83.76
2023-05-05T02:13:13.088Z,83.85
2023-05-05T02:15:42.435Z,83.83
2023-05-05T02:18:11.157Z,84.02
2023-05-05T02:20:39.959Z,84.47
2023-05-05T02:23:08.308Z,84.81
2023-05-05T02:25:40.089Z,84.41
2023-05-05T02:28:42.195Z,84.42
2023-05-05T02:31:11.043Z,84.73
2023-05-05T02:33:39.205Z,84.79
2023-05-05T02:36:14.802Z,84.51
2023-05-05T02:38:56.427Z,84.89
2023-05-05T02:41:26.336Z,84.51
2023-05-05T02:43:55.626Z,84.42
2023-05-05T02:46:23.692Z,83.92
2023-05-05T02:48:51.504Z,83.84
2023-05-05T02:51:19.203Z,83.52
2023-05-05T02:53:47.062Z,83.48
2023-05-05T02:56:21.156Z,83.13
2023-05-05T02:58:54.773Z,83.04
2023-05-05T03:02:11.409Z,82.75
2023-05-05T03:04:42.077Z,82.55
2023-05-05T03:07:14.230Z,82.12
2023-05-05T03:09:52.081Z,82.23
2023-05-05T03:12:22.396Z,81.97
2023-05-05T03:15:00.952Z,81.61
2023-05-05T03:17:30.882Z,81.37
2023-05-05T03:20:00.500Z,81.21
2023-05-05T03:22:36.121Z,80.85
2023-05-05T03:25:05.011Z,80.70
2023-05-05T03:27:32.961Z,80.49
2023-05-05T03:30:00.783Z,80.19
2023-05-05T03:32:30.788Z,79.76
2023-05-05T03:34:58.417Z,79.58
2023-05-05T03:37:30.034Z,79.27
2023-05-05T03:39:58.235Z,79.12
2023-05-05T03:42:25.882Z,78.74
2023-05-05T03:44:54.161Z,78.30
2023-05-05T03:47:24.742Z,78.16
2023-05-05T03:49:52.802Z,78.18
2023-05-05T03:52:20.576Z,77.85
2023-05-05T03:54:48.498Z,77.90
2023-05-05T03:57:16.740Z,77.61
2023-05-05T03:59:44.425Z,77.21
2023-05-05T04:02:12.094Z,77.10
2023-05-05T04:04:39.785Z,76.76
2023-05-05T04:07:07.489Z,76.69
2023-05-05T04:09:35.233Z,76.40
2023-05-05T04:12:03.161Z,76.04
2023-05-05T04:14:30.819Z,76.35
2023-05-05T04:16:58.644Z,76.25
2023-05-05T04:19:26.627Z,76.12
2023-05-05T04:21:54.488Z,75.90
2023-05-05T04:24:24.843Z,75.98
2023-05-05T04:26:53.593Z,75.87
2023-05-05T04:29:21.468Z,75.78
2023-05-05T04:31:50.579Z,75.46
2023-05-05T04:34:18.412Z,75.67
2023-05-05T04:36:46.427Z,75.94
2023-05-05T04:39:14.622Z,75.72
2023-05-05T04:41:42.329Z,75.68
2023-05-05T04:44:10.447Z,75.60
2023-05-05T04:46:38.070Z,75.59
2023-05-05T04:49:06.331Z,75.32
2023-05-05T04:51:34.590Z,75.22
2023-05-05T04:54:02.261Z,75.22
2023-05-05T04:56:31.581Z,75.12
2023-05-05T04:58:59.250Z,75.07
2023-05-05T05:01:26.949Z,74.80
2023-05-05T05:03:54.709Z,74.59
2023-05-05T05:06:22.362Z,74.23
2023-05-05T05:08:49.991Z,74.06
2023-05-05T05:11:17.629Z,73.64
2023-05-05T05:13:46.286Z,73.28
2023-05-05T05:16:14.101Z,72.89
2023-05-05T05:18:41.873Z,72.71
2023-05-05T05:21:10.289Z,72.15
2023-05-05T05:23:38.256Z,71.85
2023-05-05T05:26:06.539Z,72.08
2023-05-05T05:28:34.678Z,72.20
2023-05-05T05:31:03.319Z,72.20
2023-05-05T05:33:31.529Z,72.04
2023-05-05T05:35:59.741Z,71.62
2023-05-05T05:38:28.013Z,71.09
2023-05-05T05:40:58.168Z,71.02
2023-05-05T05:43:25.894Z,70.84
2023-05-05T05:45:53.562Z,70.58
2023-05-05T05:48:24.769Z,70.50
2023-05-05T05:50:53.338Z,70.32
2023-05-05T05:53:22.031Z,70.24
2023-05-05T05:55:50.500Z,69.43
2023-05-05T05:58:18.706Z,69.36
2023-05-05T06:00:46.661Z,69.65
2023-05-05T06:03:14.729Z,69.65
2023-05-05T06:05:42.666Z,69.93
2023-05-05T06:08:11.275Z,69.71
2023-05-05T06:10:42.853Z,69.48
2023-05-05T06:13:14.492Z,68.77
2023-05-05T06:15:44.726Z,67.95
2023-05-05T06:18:13.189Z,67.63
2023-05-05T06:20:40.807Z,67.56
2023-05-05T06:23:09.106Z,68.07
2023-05-05T06:25:39.132Z,66.94
2023-05-05T06:28:07.211Z,65.82
2023-05-05T06:30:34.870Z,65.44
2023-05-05T06:33:02.483Z,65.44
2023-05-05T06:35:30.459Z,65.19
2023-05-05T06:37:58.164Z,65.12
2023-05-05T06:40:25.798Z,65.05
2023-05-05T06:42:53.452Z,64.89
2023-05-05T06:45:24.222Z,64.69
2023-05-05T06:47:52.609Z,64.27
2023-05-05T06:50:20.363Z,64.65
2023-05-05T06:52:47.943Z,64.26
2023-05-05T06:55:15.885Z,64.14
2023-05-05T06:57:43.462Z,64.12
2023-05-05T07:00:12.022Z,63.38
2023-05-05T07:02:40.088Z,62.81
2023-05-05T07:05:08.126Z,62.46
2023-05-05T07:07:36.306Z,62.19
2023-05-05T07:10:04.298Z,61.78
2023-05-05T07:12:31.979Z,61.52
2023-05-05T07:15:00.720Z,60.99
2023-05-05T07:17:30.846Z,60.98
2023-05-05T07:19:58.429Z,59.34
2023-05-05T07:22:26.019Z,58.42
2023-05-05T07:24:53.685Z,59.68
2023-05-05T07:27:21.425Z,59.56
2023-05-05T07:29:49.036Z,59.53
2023-05-05T07:32:16.716Z,59.02
2023-05-05T07:34:44.323Z,58.61
2023-05-05T07:37:12.744Z,58.23
2023-05-05T07:39:40.648Z,57.56
2023-05-05T07:42:08.426Z,57.10
2023-05-05T07:44:36.182Z,56.20
2023-05-05T07:47:03.775Z,56.56
2023-05-05T07:49:31.789Z,55.71
2023-05-05T07:51:59.415Z,55.43
2023-05-05T07:54:27.247Z,55.69
2023-05-05T07:56:54.914Z,55.40
2023-05-05T07:59:22.612Z,54.81
2023-05-05T08:01:50.463Z,54.05
2023-05-05T08:04:18.079Z,55.94
2023-05-05T08:06:45.727Z,56.89
2023-05-05T08:09:13.748Z,57.32
2023-05-05T08:11:41.324Z,57.42
2023-05-05T08:14:08.978Z,57.25
2023-05-05T08:16:36.647Z,57.40
2023-05-05T08:19:06.364Z,56.00
2023-05-05T08:21:39.660Z,55.44
2023-05-05T08:24:07.278Z,55.63
2023-05-05T08:26:34.839Z,55.42
2023-05-05T08:29:02.618Z,55.30
2023-05-05T08:31:33.893Z,53.44
2023-05-05T08:34:02.613Z,53.23
2023-05-05T08:36:30.976Z,52.07
2023-05-05T08:38:59.555Z,50.62
2023-05-05T08:41:28.042Z,49.11
2023-05-05T08:43:55.715Z,49.48
2023-05-05T08:46:24.137Z,48.00
2023-05-05T08:48:55.157Z,47.50
2023-05-05T08:51:24.465Z,48.47
2023-05-05T08:53:55.101Z,48.62
2023-05-05T08:56:26.827Z,46.55
2023-05-05T08:58:55.019Z,46.71
2023-05-05T09:01:22.723Z,48.16
2023-05-05T09:03:52.564Z,46.31
2023-05-05T09:06:21.515Z,46.55
2023-05-05T09:08:49.609Z,46.79
2023-05-05T09:11:17.216Z,47.14
2023-05-05T09:13:44.799Z,46.93
2023-05-05T09:16:12.481Z,47.31
2023-05-05T09:18:42.506Z,45.49
2023-05-05T09:21:24.942Z,45.42
2023-05-05T09:24:09.419Z,46.83
2023-05-05T09:26:40.764Z,47.32
2023-05-05T09:29:08.456Z,47.07
2023-05-05T09:31:37.066Z,45.32
2023-05-05T09:34:22.762Z,45.56
2023-05-05T09:36:50.435Z,47.32
2023-05-05T09:39:19.597Z,46.61
2023-05-05T09:41:47.261Z,46.63
2023-05-05T09:44:18.193Z,46.02
2023-05-05T09:46:53.233Z,46.89
2023-05-05T09:49:26.608Z,46.07
2023-05-05T09:51:54.769Z,46.87
2023-05-05T09:54:27.482Z,48.08
2023-05-05T09:56:56.858Z,48.41
2023-05-05T09:59:24.897Z,47.94
2023-05-05T10:01:52.519Z,46.24
2023-05-05T10:04:28.505Z,45.46
2023-05-05T10:06:57.291Z,45.63
2023-05-05T10:09:26.124Z,44.89
2023-05-05T10:11:56.680Z,45.01
2023-05-05T10:14:25.599Z,45.68
2023-05-05T10:16:54.974Z,45.24
2023-05-05T10:19:24.173Z,45.21
2023-05-05T10:21:53.959Z,45.84
2023-05-05T10:24:27.429Z,46.04
2023-05-05T10:26:58.118Z,45.27
2023-05-05T10:29:45.871Z,46.05
2023-05-05T10:32:50.880Z,46.73
2023-05-05T10:35:11.338Z,47.79
2023-05-05T10:37:39.376Z,48.96
2023-05-05T10:40:08.846Z,49.26
2023-05-05T10:42:39.841Z,48.68
2023-05-05T10:45:08.205Z,49.59
2023-05-05T10:47:36.959Z,49.13
2023-05-05T10:50:36.788Z,49.08
2023-05-05T10:53:13.680Z,49.58
2023-05-05T10:55:48.442Z,48.55
2023-05-05T10:58:46.801Z,47.64
2023-05-05T11:01:34.621Z,47.93
2023-05-05T11:04:18.829Z,47.35
2023-05-05T11:07:09.252Z,46.86
2023-05-05T11:10:14.074Z,46.93
2023-05-05T11:12:54.740Z,47.17
2023-05-05T11:15:31.307Z,47.00
2023-05-05T11:18:03.149Z,47.12
2023-05-05T11:20:35.783Z,47.61
2023-05-05T11:23:03.459Z,48.64
2023-05-05T11:25:37.368Z,49.31
2023-05-05T11:28:10.253Z,49.49
2023-05-05T11:30:56.929Z,49.18
2023-05-05T11:33:29.100Z,47.76
2023-05-05T11:36:04.269Z,47.53
2023-05-05T11:38:55.740Z,47.98
2023-05-05T11:41:56.680Z,47.77
2023-05-05T11:44:34.188Z,48.94
2023-05-05T11:47:04.756Z,48.77
2023-05-05T11:49:37.789Z,48.44
2023-05-05T11:52:07.570Z,47.44
2023-05-05T11:54:37.539Z,48.30
2023-05-05T11:57:07.197Z,49.23
2023-05-05T11:59:37.175Z,50.03
2023-05-05T12:02:04.896Z,49.90
2023-05-05T12:04:32.763Z,49.15
2023-05-05T12:07:00.670Z,48.44
2023-05-05T12:09:28.285Z,48.27
2023-05-05T12:11:57.169Z,49.43
2023-05-05T12:14:25.522Z,48.37
2023-05-05T12:17:17.237Z,49.30
2023-05-05T12:19:50.104Z,49.27
2023-05-05T12:22:22.700Z,49.01
2023-05-05T12:24:58.970Z,48.62
2023-05-05T12:27:27.730Z,48.14
2023-05-05T12:29:56.657Z,46.30
2023-05-05T12:32:26.006Z,47.52
2023-05-05T12:34:55.349Z,48.56
2023-05-05T12:37:25.034Z,48.68
2023-05-05T12:39:54.930Z,48.80
2023-05-05T12:42:22.956Z,48.41
2023-05-05T12:44:50.655Z,48.77
2023-05-05T12:47:32.038Z,49.39
2023-05-05T12:50:00.501Z,49.60
2023-05-05T12:52:44.487Z,49.62
2023-05-05T12:55:12.519Z,49.87
2023-05-05T12:58:00.445Z,50.14
2023-05-05T13:00:29.136Z,50.58
2023-05-05T13:02:57.083Z,50.83
2023-05-05T13:05:36.253Z,51.06
2023-05-05T13:08:04.056Z,50.88
2023-05-05T13:10:31.762Z,51.62
2023-05-05T13:12:59.470Z,52.01
2023-05-05T13:15:27.918Z,51.40
2023-05-05T13:18:02.862Z,51.93
2023-05-05T13:20:30.706Z,51.46
2023-05-05T13:22:58.304Z,51.41
2023-05-05T13:25:26.061Z,52.16
2023-05-05T13:27:53.643Z,52.16
2023-05-05T13:30:21.345Z,51.68
2023-05-05T13:32:49.015Z,51.89
2023-05-05T13:35:17.219Z,52.41
2023-05-05T13:37:46.619Z,51.48
2023-05-05T13:40:14.293Z,51.10
2023-05-05T13:42:41.925Z,51.13
2023-05-05T13:45:10.216Z,51.50
2023-05-05T13:47:38.410Z,51.69
2023-05-05T13:50:07.240Z,51.55
2023-05-05T13:52:34.783Z,51.35
2023-05-05T13:55:02.695Z,51.37
2023-05-05T13:57:30.290Z,51.27
2023-05-05T13:59:58.091Z,50.86
2023-05-05T14:02:25.736Z,51.43
2023-05-05T14:04:53.429Z,51.42
2023-05-05T14:07:21.500Z,50.46
2023-05-05T14:09:49.118Z,50.36
2023-05-05T14:12:16.735Z,51.09
2023-05-05T14:14:44.463Z,49.68
2023-05-05T14:17:12.866Z,49.72
2023-05-05T14:19:40.509Z,50.02
2023-05-05T14:22:08.109Z,49.73
2023-05-05T14:24:35.753Z,49.15
2023-05-05T14:27:04.688Z,49.48
2023-05-05T14:29:32.316Z,50.16
2023-05-05T14:32:00.281Z,51.70
2023-05-05T14:34:27.946Z,52.26
2023-05-05T14:36:55.656Z,52.22
2023-05-05T14:39:23.700Z,52.74
2023-05-05T14:41:51.326Z,52.89
2023-05-05T14:44:18.959Z,53.63
2023-05-05T14:46:47.567Z,54.10
2023-05-05T14:49:16.234Z,54.52
2023-05-05T14:51:43.894Z,54.89
2023-05-05T14:54:24.300Z,55.50
2023-05-05T14:56:55.236Z,55.94
2023-05-05T14:59:22.856Z,56.23
2023-05-05T15:01:50.452Z,56.27
2023-05-05T15:04:18.083Z,56.50
2023-05-05T15:06:45.788Z,56.77
2023-05-05T15:09:13.412Z,56.92
2023-05-05T15:11:45.361Z,57.25
2023-05-05T15:14:13.028Z,57.78
2023-05-05T15:16:40.909Z,58.57
2023-05-05T15:19:08.541Z,58.38
2023-05-05T15:21:36.132Z,58.23
2023-05-05T15:24:04.827Z,58.45
2023-05-05T15:26:32.420Z,58.46
2023-05-05T15:28:59.990Z,57.96
2023-05-05T15:31:27.632Z,57.99
2023-05-05T15:33:55.284Z,57.50
2023-05-05T15:36:24.574Z,57.44
2023-05-05T15:38:52.142Z,58.03
2023-05-05T15:41:19.747Z,57.93
2023-05-05T15:43:47.301Z,57.60
2023-05-05T15:46:15.223Z,58.32
2023-05-05T15:48:42.890Z,58.90
2023-05-05T15:51:12.544Z,59.04
2023-05-05T15:53:40.151Z,59.42
2023-05-05T15:56:08.075Z,59.45
2023-05-05T15:58:36.750Z,59.46
2023-05-05T16:01:04.374Z,59.78
2023-05-05T16:03:32.289Z,60.40
2023-05-05T16:05:59.957Z,61.03
2023-05-05T16:08:27.605Z,61.34
2023-05-05T16:10:55.867Z,61.91
2023-05-05T16:13:23.459Z,62.32
2023-05-05T16:15:51.034Z,62.48
2023-05-05T16:18:18.623Z,62.93
2023-05-05T16:20:46.396Z,63.64
2023-05-05T16:23:14.023Z,63.20
2023-05-05T16:25:41.668Z,62.97
2023-05-05T16:28:09.308Z,63.27
2023-05-05T16:30:38.057Z,63.85
2023-05-05T16:33:06.698Z,64.18
2023-05-05T16:35:34.437Z,63.82
2023-05-05T16:38:02.084Z,64.14
2023-05-05T16:40:29.726Z,64.40
2023-05-05T16:42:57.334Z,64.62
2023-05-05T16:45:25.043Z,65.00
2023-05-05T16:47:52.841Z,65.48
2023-05-05T16:50:21.386Z,65.74
2023-05-05T16:52:49.099Z,66.19
2023-05-05T16:55:16.791Z,66.24
2023-05-05T16:57:44.378Z,66.57
2023-05-05T17:00:12.373Z,66.02
2023-05-05T17:02:39.984Z,65.87
2023-05-05T17:05:08.287Z,66.53
2023-05-05T17:07:36.284Z,66.71
2023-05-05T17:10:04.378Z,66.89
2023-05-05T17:12:32.067Z,67.02
2023-05-05T17:14:59.926Z,67.07
2023-05-05T17:17:27.617Z,67.53
2023-05-05T17:19:55.870Z,67.54
2023-05-05T17:22:23.461Z,67.82
2023-05-05T17:24:51.044Z,67.72
2023-05-05T17:27:18.724Z,67.91
2023-05-05T17:29:46.322Z,67.22
2023-05-05T17:32:13.928Z,67.19
2023-05-05T17:34:41.488Z,67.41
2023-05-05T17:37:09.735Z,68.01
2023-05-05T17:39:37.370Z,68.60
2023-05-05T17:42:05.079Z,68.51
2023-05-05T17:44:32.781Z,68.67
2023-05-05T17:47:00.446Z,68.64
2023-05-05T17:49:28.070Z,68.62
2023-05-05T17:51:55.690Z,68.96
2023-05-05T17:54:23.297Z,68.71
2023-05-05T17:56:51.581Z,69.19
2023-05-05T17:59:19.173Z,68.80
2023-05-05T18:01:46.882Z,69.19
2023-05-05T18:04:14.487Z,69.09
2023-05-05T18:06:42.078Z,69.31
2023-05-05T18:09:11.279Z,69.61
2023-05-05T18:11:39.044Z,69.60
2023-05-05T18:14:06.654Z,69.89
2023-05-05T18:16:34.248Z,69.91
2023-05-05T18:19:01.865Z,69.96
2023-05-05T18:21:29.887Z,70.21
2023-05-05T18:24:07.570Z,70.51
2023-05-05T18:26:50.282Z,70.52
2023-05-05T18:29:18.877Z,70.71
2023-05-05T18:31:51.818Z,70.80
2023-05-05T18:34:20.739Z,71.24
2023-05-05T18:36:50.738Z,71.47
2023-05-05T18:39:18.522Z,71.47
2023-05-05T18:41:46.158Z,71.34
2023-05-05T18:44:15.043Z,71.49
2023-05-05T18:46:46.783Z,71.46
2023-05-05T18:49:14.924Z,71.62
2023-05-05T18:51:43.286Z,71.79
2023-05-05T18:54:11.008Z,72.40
2023-05-05T18:56:38.760Z,72.87
2023-05-05T18:59:06.400Z,72.96
2023-05-05T19:01:34.022Z,73.40
2023-05-05T19:04:01.642Z,73.32
2023-05-05T19:06:29.255Z,73.23
2023-05-05T19:08:57.185Z,73.15
2023-05-05T19:11:24.766Z,73.19
2023-05-05T19:13:52.366Z,73.34
2023-05-05T19:16:20.051Z,73.50
2023-05-05T19:18:47.816Z,73.60
2023-05-05T19:21:15.489Z,73.94
2023-05-05T19:23:43.095Z,74.24
2023-05-05T19:26:11.572Z,74.45
2023-05-05T19:28:39.199Z,74.49
2023-05-05T19:31:06.782Z,74.61
2023-05-05T19:33:34.351Z,74.31
2023-05-05T19:36:02.657Z,74.51
2023-05-05T19:38:30.235Z,75.16
2023-05-05T19:40:57.814Z,75.04
2023-05-05T19:43:25.381Z,75.86
2023-05-05T19:45:53.036Z,75.78
2023-05-05T19:48:20.878Z,76.19
2023-05-05T19:50:48.528Z,76.47
2023-05-05T19:53:16.123Z,76.07
2023-05-05T19:55:43.753Z,76.47
2023-05-05T19:58:12.009Z,76.24
2023-05-05T20:00:39.911Z,76.58
2023-05-05T20:03:07.560Z,76.37
2023-05-05T20:05:36.527Z,76.48
2023-05-05T20:08:04.271Z,76.73
2023-05-05T20:10:31.871Z,76.74
2023-05-05T20:12:59.520Z,76.93
2023-05-05T20:15:27.451Z,76.87
2023-05-05T20:17:55.283Z,77.00
2023-05-05T20:20:22.942Z,77.10
2023-05-05T20:22:50.549Z,77.54
2023-05-05T20:25:18.226Z,77.50
2023-05-05T20:27:46.024Z,77.59
2023-05-05T20:30:14.505Z,77.46
2023-05-05T20:32:42.174Z,77.80
2023-05-05T20:35:10.024Z,77.92
2023-05-05T20:37:37.697Z,78.07
2023-05-05T20:40:06.250Z,77.88
2023-05-05T20:42:33.899Z,77.85
2023-05-05T20:45:02.105Z,78.24
2023-05-05T20:47:29.774Z,78.62
2023-05-05T20:49:57.390Z,78.74
2023-05-05T20:52:25.042Z,78.37
2023-05-05T20:54:52.661Z,78.53
2023-05-05T20:57:20.323Z,78.88
2023-05-05T20:59:47.984Z,78.86
2023-05-05T21:02:15.653Z,79.09
2023-05-05T21:04:43.364Z,79.26
2023-05-05T21:07:10.974Z,79.71
2023-05-05T21:09:38.587Z,80.44
2023-05-05T21:12:06.610Z,80.30
2023-05-05T21:14:34.202Z,80.52
2023-05-05T21:17:01.878Z,80.74
2023-05-05T21:19:29.504Z,81.30
2023-05-05T21:21:59.222Z,81.41
2023-05-05T21:24:28.043Z,81.77
2023-05-05T21:26:56.338Z,81.21
2023-05-05T21:29:26.740Z,81.78
2023-05-05T21:31:54.448Z,82.19
2023-05-05T21:34:22.105Z,82.27
2023-05-05T21:36:49.682Z,82.38
2023-05-05T21:39:17.285Z,82.53
2023-05-05T21:41:44.922Z,82.72
2023-05-05T21:44:12.569Z,82.68
2023-05-05T21:46:40.414Z,82.55
2023-05-05T21:49:20.400Z,82.94
2023-05-05T21:51:48.015Z,83.31
2023-05-05T21:54:15.905Z,83.67
2023-05-05T21:56:43.562Z,83.66
2023-05-05T21:59:11.233Z,83.79
2023-05-05T22:01:38.894Z,83.99
2023-05-05T22:04:07.513Z,84.18
2023-05-05T22:06:35.550Z,84.61
2023-05-05T22:09:03.313Z,85.20
2023-05-05T22:11:31.341Z,85.05
2023-05-05T22:13:58.941Z,84.98
2023-05-05T22:16:26.685Z,85.33
2023-05-05T22:18:54.284Z,85.98
2023-05-05T22:21:22.093Z,85.77
2023-05-05T22:23:49.701Z,86.00
2023-05-05T22:26:17.293Z,85.94
2023-05-05T22:28:44.992Z,86.01
2023-05-05T22:31:12.727Z,86.59
2023-05-05T22:33:40.327Z,86.95
2023-05-05T22:36:09.085Z,86.91
2023-05-05T22:38:37.214Z,86.94
2023-05-05T22:41:06.468Z,87.04
2023-05-05T22:43:34.070Z,87.93
2023-05-05T22:46:01.894Z,88.53
2023-05-05T22:48:29.519Z,88.34
2023-05-05T22:50:57.438Z,88.57
2023-05-05T22:53:25.012Z,89.11
2023-05-05T22:55:52.671Z,88.87
2023-05-05T22:58:21.051Z,89.72
2023-05-05T23:00:48.649Z,89.15
2023-05-05T23:03:16.281Z,89.85
2023-05-05T23:05:43.898Z,89.96
2023-05-05T23:08:11.500Z,90.18
2023-05-05T23:10:39.113Z,90.55
2023-05-05T23:13:06.808Z,90.45
2023-05-05T23:15:35.032Z,91.00
2023-05-05T23:18:02.714Z,92.03
2023-05-05T23:20:30.390Z,92.31
2023-05-05T23:22:58.037Z,92.56
2023-05-05T23:25:26.013Z,92.46
2023-05-05T23:27:53.719Z,92.67
2023-05-05T23:30:21.538Z,92.82
2023-05-05T23:32:49.194Z,93.52
2023-05-05T23:35:16.857Z,93.52
2023-05-05T23:37:44.495Z,93.45
2023-05-05T23:40:12.117Z,94.46
2023-05-05T23:42:39.753Z,94.38
2023-05-05T23:45:08.378Z,94.55
2023-05-05T23:47:36.343Z,95.33
2023-05-05T23:50:04.314Z,95.16
2023-05-05T23:52:31.934Z,95.53
2023-05-05T23:54:59.514Z,94.91
2023-05-05T23:57:27.092Z,95.18
2023-05-05T23:59:54.666Z,95.16
